Time;durP1;ratioP1;P1;durP2;ratioP2;P2;SDS_P1;SDS_P2;PMS_P1;PMS_P2;Temp;Humidity;BMP_temperature;BMP_pressure;BME280_temperature;BME280_humidity;BME280_pressure;Samples;Min_cycle;Max_cycle;Signal;HPM_P1;HPM_P2
2021/08/10 00:01:18;;;;;;;3.75;2.03;;;15.00;99.90;;;;;;5071952;28;20036;-76
2021/08/10 00:03:44;;;;;;;6.97;2.00;;;14.90;99.90;;;;;;5072771;28;20398;-76
2021/08/10 00:06:09;;;;;;;4.32;2.20;;;14.90;99.90;;;;;;5073079;28;20063;-76
2021/08/10 00:08:35;;;;;;;4.05;2.65;;;14.90;99.90;;;;;;5073230;28;20068;-76
2021/08/10 00:11:01;;;;;;;4.47;2.20;;;14.90;99.90;;;;;;5072835;28;20029;-77
2021/08/10 00:13:27;;;;;;;7.18;2.47;;;14.80;99.90;;;;;;5071479;28;20024;-77
2021/08/10 00:15:53;;;;;;;5.10;2.80;;;14.80;99.90;;;;;;5072870;28;20028;-76
2021/08/10 00:18:19;;;;;;;3.80;2.28;;;14.80;99.90;;;;;;5072985;28;20043;-76
2021/08/10 00:20:45;;;;;;;3.17;2.22;;;14.70;99.90;;;;;;5072060;28;20032;-76
2021/08/10 00:23:11;;;;;;;8.93;2.83;;;14.80;99.90;;;;;;5071495;28;20120;-76
2021/08/10 00:25:36;;;;;;;3.90;2.60;;;14.70;99.90;;;;;;5071434;28;20123;-76
2021/08/10 00:28:02;;;;;;;5.97;2.42;;;14.70;99.90;;;;;;5072219;28;20031;-77
2021/08/10 00:30:28;;;;;;;6.93;2.10;;;14.70;99.90;;;;;;5072981;28;20044;-77
2021/08/10 00:32:54;;;;;;;6.82;2.72;;;14.60;99.90;;;;;;5071700;28;20478;-76
2021/08/10 00:35:20;;;;;;;6.07;2.60;;;14.60;99.90;;;;;;5069881;28;20031;-77
2021/08/10 00:37:45;;;;;;;7.97;2.80;;;14.50;99.90;;;;;;5072426;28;20025;-77
2021/08/10 00:40:13;;;;;;;7.55;2.95;;;14.40;99.90;;;;;;5071271;28;20032;-76
2021/08/10 00:42:38;;;;;;;5.97;2.50;;;14.30;99.90;;;;;;5072256;28;20409;-76
2021/08/10 00:45:05;;;;;;;5.95;2.30;;;14.30;99.90;;;;;;5070250;28;20033;-75
2021/08/10 00:47:31;;;;;;;8.77;2.60;;;14.20;99.90;;;;;;5071683;28;20027;-76
2021/08/10 00:49:56;;;;;;;7.10;2.92;;;14.10;99.90;;;;;;5072414;28;20107;-76
2021/08/10 00:52:22;;;;;;;10.10;3.33;;;14.00;99.90;;;;;;5070795;28;20017;-76
2021/08/10 00:54:48;;;;;;;5.13;2.60;;;14.00;99.90;;;;;;5061888;28;20030;-76
2021/08/10 00:57:13;;;;;;;10.40;2.65;;;13.90;99.90;;;;;;5071684;28;20056;-76
2021/08/10 00:59:39;;;;;;;4.97;2.60;;;13.90;99.90;;;;;;5071541;28;20024;-75
2021/08/10 01:02:06;;;;;;;6.03;2.78;;;13.90;99.90;;;;;;5071933;28;20146;-76
2021/08/10 01:04:32;;;;;;;6.38;2.92;;;13.80;99.90;;;;;;5070124;28;20032;-76
2021/08/10 01:07:13;;;;;;;7.82;3.22;;;13.80;99.90;;;;;;5071741;28;20501;-76
2021/08/10 01:10:17;;;;;;;9.65;2.80;;;13.80;99.90;;;;;;5051667;28;20060;-76
2021/08/10 01:12:50;;;;;;;6.72;3.17;;;13.70;99.90;;;;;;5009732;28;20137;-76
2021/08/10 01:15:19;;;;;;;5.05;2.50;;;13.70;99.90;;;;;;5061558;28;20117;-76
2021/08/10 01:18:00;;;;;;;5.65;2.80;;;13.60;99.90;;;;;;5072157;28;20024;-76
2021/08/10 01:20:53;;;;;;;7.07;2.85;;;13.60;99.90;;;;;;5061493;28;20037;-76
2021/08/10 01:23:26;;;;;;;5.78;2.95;;;13.50;99.90;;;;;;5066132;28;20593;-76
2021/08/10 01:26:04;;;;;;;9.48;3.28;;;13.50;99.90;;;;;;5051662;28;20108;-77
2021/08/10 01:28:58;;;;;;;6.32;2.97;;;13.50;99.90;;;;;;5062930;28;20029;-76
2021/08/10 01:31:31;;;;;;;4.97;2.70;;;13.50;99.90;;;;;;5061246;28;20097;-76
2021/08/10 01:34:21;;;;;;;5.57;2.53;;;13.50;99.90;;;;;;5071594;28;20398;-76
2021/08/10 01:36:48;;;;;;;9.25;3.22;;;13.50;99.90;;;;;;5070159;28;20047;-76
2021/08/10 01:39:14;;;;;;;9.18;2.65;;;13.50;99.90;;;;;;5070285;28;20024;-76
2021/08/10 01:41:41;;;;;;;4.85;2.97;;;13.40;99.90;;;;;;5065818;28;20040;-76
2021/08/10 01:44:07;;;;;;;7.72;2.72;;;13.40;99.90;;;;;;5064934;28;20012;-76
2021/08/10 01:46:34;;;;;;;5.75;3.08;;;13.40;99.90;;;;;;5068007;28;20406;-77
2021/08/10 01:49:01;;;;;;;5.50;2.80;;;13.30;99.90;;;;;;5051178;28;20143;-77
2021/08/10 01:51:28;;;;;;;5.60;2.88;;;13.30;99.90;;;;;;5054092;28;20073;-76
2021/08/10 01:53:58;;;;;;;7.95;3.13;;;13.20;99.90;;;;;;5067124;28;20028;-76
2021/08/10 01:56:25;;;;;;;7.10;3.20;;;13.20;99.90;;;;;;5071488;28;20402;-76
2021/08/10 01:58:52;;;;;;;4.57;3.00;;;13.20;99.90;;;;;;5070589;28;20030;-77
2021/08/10 02:01:18;;;;;;;3.50;2.50;;;13.20;99.90;;;;;;5061829;28;20054;-76
2021/08/10 02:03:45;;;;;;;7.05;3.25;;;13.10;99.90;;;;;;5065996;28;20032;-76
2021/08/10 02:06:15;;;;;;;10.35;3.38;;;13.10;99.90;;;;;;5063415;28;20091;-76
2021/08/10 02:08:41;;;;;;;9.02;3.13;;;13.00;99.90;;;;;;5060870;28;20025;-76
2021/08/10 02:11:09;;;;;;;5.78;3.05;;;13.00;99.90;;;;;;5069629;28;20032;-76
2021/08/10 02:13:34;;;;;;;6.78;3.33;;;13.00;99.90;;;;;;5069333;28;20052;-76
2021/08/10 02:16:01;;;;;;;7.00;2.97;;;12.90;99.90;;;;;;5070932;28;20521;-77
2021/08/10 02:18:27;;;;;;;7.80;3.22;;;12.90;99.90;;;;;;5067253;28;20101;-76
2021/08/10 02:20:56;;;;;;;8.68;3.00;;;12.90;99.90;;;;;;5051048;28;20082;-76
2021/08/10 02:23:29;;;;;;;6.97;3.00;;;12.90;99.90;;;;;;5052065;28;20122;-76
2021/08/10 02:25:57;;;;;;;4.57;2.80;;;12.80;99.90;;;;;;5069573;28;20108;-76
2021/08/10 02:28:24;;;;;;;7.63;3.20;;;12.80;99.90;;;;;;5067020;28;20505;-76
2021/08/10 02:30:53;;;;;;;7.38;3.22;;;12.80;99.90;;;;;;5064967;28;20029;-76
2021/08/10 02:33:21;;;;;;;6.28;2.85;;;12.80;99.90;;;;;;5067352;28;20017;-76
2021/08/10 02:35:49;;;;;;;7.43;2.90;;;12.70;99.90;;;;;;5060865;28;20013;-77
2021/08/10 02:38:18;;;;;;;5.40;3.03;;;12.70;99.90;;;;;;5070135;28;20428;-76
2021/08/10 02:40:47;;;;;;;7.43;3.17;;;12.70;99.90;;;;;;5070597;28;20035;-76
2021/08/10 02:43:15;;;;;;;5.30;3.50;;;12.70;99.90;;;;;;5069342;28;20082;-77
2021/08/10 02:45:41;;;;;;;8.15;3.53;;;12.80;99.90;;;;;;5069072;28;20111;-77
2021/08/10 02:48:07;;;;;;;13.73;3.83;;;12.80;99.90;;;;;;5062521;28;20171;-76
2021/08/10 02:50:33;;;;;;;15.95;4.25;;;12.90;99.90;;;;;;5049234;28;20021;-77
2021/08/10 02:52:58;;;;;;;7.53;3.50;;;13.00;99.90;;;;;;5055184;28;20020;-76
2021/08/10 02:55:26;;;;;;;7.45;3.90;;;13.00;99.90;;;;;;5070236;28;20043;-77
2021/08/10 02:57:54;;;;;;;7.05;3.42;;;13.00;99.90;;;;;;5065211;28;20112;-77
2021/08/10 03:00:21;;;;;;;7.15;4.13;;;13.00;99.90;;;;;;5054584;28;20082;-77
2021/08/10 03:02:49;;;;;;;5.53;2.88;;;13.10;99.90;;;;;;5073800;28;20024;-76
2021/08/10 03:05:17;;;;;;;5.22;3.38;;;13.10;99.90;;;;;;5055945;28;20029;-76
2021/08/10 03:08:00;;;;;;;9.75;3.28;;;13.10;99.90;;;;;;5071711;28;20100;-76
2021/08/10 03:10:29;;;;;;;7.20;3.75;;;13.20;99.90;;;;;;5063093;28;20029;-77
2021/08/10 03:12:56;;;;;;;8.55;3.42;;;13.30;99.90;;;;;;5053725;28;20029;-77
2021/08/10 03:15:24;;;;;;;9.77;3.47;;;13.30;99.90;;;;;;5061728;28;20025;-76
2021/08/10 03:17:53;;;;;;;10.00;3.85;;;13.40;99.90;;;;;;5071379;28;20024;-77
2021/08/10 03:20:21;;;;;;;6.72;3.47;;;13.40;99.90;;;;;;5073503;28;20036;-77
2021/08/10 03:22:48;;;;;;;10.82;4.07;;;13.50;99.90;;;;;;5073329;28;20486;-76
2021/08/10 03:25:16;;;;;;;8.27;3.00;;;13.50;99.90;;;;;;5061879;28;20033;-76
2021/08/10 03:27:43;;;;;;;4.38;3.03;;;13.60;99.90;;;;;;5069159;28;20063;-77
2021/08/10 03:30:09;;;;;;;8.52;3.05;;;13.60;99.90;;;;;;5058146;28;20107;-77
2021/08/10 03:32:36;;;;;;;10.98;3.83;;;13.60;99.90;;;;;;5070655;28;20060;-76
2021/08/10 03:35:03;;;;;;;8.15;2.88;;;13.60;99.90;;;;;;5071899;28;20099;-76
2021/08/10 03:37:31;;;;;;;10.23;3.38;;;13.60;99.90;;;;;;5071910;28;20024;-76
2021/08/10 03:39:58;;;;;;;8.07;3.78;;;13.70;99.90;;;;;;5063483;28;20017;-76
2021/08/10 03:42:25;;;;;;;7.22;3.53;;;13.70;99.90;;;;;;5054487;28;20041;-76
2021/08/10 03:44:51;;;;;;;11.50;3.83;;;13.70;99.90;;;;;;5065499;28;20501;-77
2021/08/10 03:47:18;;;;;;;11.05;3.22;;;13.80;99.90;;;;;;5073171;28;20021;-77
2021/08/10 03:49:45;;;;;;;9.30;3.30;;;13.80;99.90;;;;;;5066843;28;20032;-76
2021/08/10 03:52:12;;;;;;;8.50;3.67;;;13.80;99.90;;;;;;5074133;28;20037;-77
2021/08/10 03:54:38;;;;;;;10.30;3.92;;;13.80;99.90;;;;;;5065889;28;20019;-76
2021/08/10 03:57:05;;;;;;;9.27;4.25;;;13.90;99.90;;;;;;5062254;28;20036;-77
2021/08/10 03:59:33;;;;;;;12.48;4.47;;;14.10;99.90;;;;;;5069280;28;20147;-77
2021/08/10 04:01:59;;;;;;;12.20;3.65;;;14.10;99.90;;;;;;5071498;28;20029;-77
2021/08/10 04:04:27;;;;;;;13.65;4.93;;;14.10;99.90;;;;;;5067043;28;20044;-77
2021/08/10 04:06:54;;;;;;;8.40;3.72;;;14.20;99.90;;;;;;5073050;28;20031;-77
2021/08/10 04:09:21;;;;;;;6.55;3.67;;;14.20;99.90;;;;;;5074859;23;20074;-58
2021/08/10 04:11:48;;;;;;;7.35;4.10;;;14.20;99.90;;;;;;5071077;28;20443;-58
2021/08/10 04:14:14;;;;;;;10.13;3.70;;;14.20;99.90;;;;;;5068748;28;20044;-57
2021/08/10 04:16:56;;;;;;;9.63;4.45;;;14.20;99.90;;;;;;5071023;28;20024;-57
2021/08/10 04:19:27;;;;;;;9.27;4.03;;;14.20;99.90;;;;;;5075797;28;20020;-59
2021/08/10 04:21:53;;;;;;;12.13;3.80;;;14.20;99.90;;;;;;5082760;28;20443;-58
2021/08/10 04:24:19;;;;;;;8.88;4.50;;;14.20;99.90;;;;;;5085818;28;20055;-58
2021/08/10 04:26:44;;;;;;;9.32;4.53;;;14.20;99.90;;;;;;5087215;28;20036;-58
2021/08/10 04:29:10;;;;;;;7.30;3.80;;;14.20;99.90;;;;;;5087301;28;20514;-59
2021/08/10 04:31:35;;;;;;;8.98;4.15;;;14.10;99.90;;;;;;5087414;28;20126;-57
2021/08/10 04:34:01;;;;;;;15.07;4.63;;;14.10;99.90;;;;;;5086280;28;20070;-58
2021/08/10 04:36:26;;;;;;;10.40;4.63;;;14.10;99.90;;;;;;5080914;28;20024;-57
2021/08/10 04:38:52;;;;;;;11.75;4.82;;;14.10;99.90;;;;;;5084217;28;20019;-57
2021/08/10 04:41:18;;;;;;;13.23;4.07;;;14.10;99.90;;;;;;5082862;28;20554;-59
2021/08/10 04:43:43;;;;;;;8.02;3.95;;;14.10;99.90;;;;;;5081049;28;20055;-59
2021/08/10 04:46:09;;;;;;;14.25;4.47;;;14.10;99.90;;;;;;5083348;28;20074;-59
2021/08/10 04:48:34;;;;;;;8.93;4.20;;;14.10;99.90;;;;;;5089030;28;20032;-58
2021/08/10 04:51:00;;;;;;;9.95;4.65;;;14.10;99.90;;;;;;5090682;28;20028;-59
2021/08/10 04:53:25;;;;;;;8.45;3.90;;;14.20;99.90;;;;;;5084904;28;20021;-59
2021/08/10 04:55:51;;;;;;;11.85;4.55;;;14.10;99.90;;;;;;5088825;28;20494;-59
2021/08/10 04:58:16;;;;;;;10.07;4.28;;;14.20;99.90;;;;;;5088153;28;20055;-59
2021/08/10 05:00:42;;;;;;;10.90;4.22;;;14.20;99.90;;;;;;5084585;28;20039;-59
2021/08/10 05:03:07;;;;;;;8.60;4.45;;;14.10;99.90;;;;;;5089497;28;20036;-58
2021/08/10 05:05:33;;;;;;;12.23;4.75;;;14.10;99.90;;;;;;5088013;28;20024;-59
2021/08/10 05:07:58;;;;;;;8.90;4.30;;;14.10;99.90;;;;;;5088876;28;20031;-59
2021/08/10 05:10:24;;;;;;;10.90;4.07;;;14.10;99.90;;;;;;5087905;28;20036;-59
2021/08/10 05:12:51;;;;;;;10.52;4.38;;;14.10;99.90;;;;;;5073222;28;20291;-59
2021/08/10 05:15:16;;;;;;;9.73;4.82;;;14.20;99.90;;;;;;5086039;28;20437;-59
2021/08/10 05:17:42;;;;;;;127.68;15.82;;;14.20;99.90;;;;;;5084198;28;20016;-59
2021/08/10 05:20:08;;;;;;;53.05;9.25;;;14.20;99.90;;;;;;5079256;28;20460;-58
2021/08/10 05:22:34;;;;;;;40.63;7.35;;;14.20;99.90;;;;;;5082005;28;20526;-58
2021/08/10 05:24:59;;;;;;;18.45;5.65;;;14.30;99.90;;;;;;5080295;28;20048;-60
2021/08/10 05:27:25;;;;;;;10.98;4.65;;;14.20;99.90;;;;;;5082755;28;20059;-59
2021/08/10 05:29:51;;;;;;;10.15;3.97;;;14.30;99.90;;;;;;5090442;28;20036;-59
2021/08/10 05:32:16;;;;;;;8.80;3.55;;;14.30;99.90;;;;;;5084985;28;20372;-59
2021/08/10 05:34:41;;;;;;;8.00;3.92;;;14.30;99.90;;;;;;5081478;28;20510;-58
2021/08/10 05:37:07;;;;;;;8.93;4.32;;;14.40;99.90;;;;;;5080563;28;20024;-59
2021/08/10 05:39:33;;;;;;;6.53;3.47;;;15.00;99.90;;;;;;5083603;28;20026;-58
2021/08/10 05:41:59;;;;;;;9.57;3.30;;;15.70;99.90;;;;;;5089484;28;20036;-60
2021/08/10 05:44:24;;;;;;;14.45;2.72;;;16.20;99.90;;;;;;5076231;28;20032;-60
2021/08/10 05:46:50;;;;;;;13.25;3.33;;;17.20;99.90;;;;;;5084875;28;20086;-58
2021/08/10 05:49:16;;;;;;;7.78;2.72;;;17.80;99.90;;;;;;5087993;28;20079;-60
2021/08/10 05:51:41;;;;;;;6.78;3.03;;;17.90;99.90;;;;;;5089944;28;20031;-61
2021/08/10 05:54:12;;;;;;;11.75;2.88;;;18.20;99.90;;;;;;5085998;28;20077;-62
2021/08/10 05:56:38;;;;;;;10.05;2.78;;;18.50;99.90;;;;;;5078602;28;20031;-60
2021/08/10 05:59:04;;;;;;;3.38;2.22;;;18.40;99.90;;;;;;5087197;28;20043;-61
2021/08/10 06:01:29;;;;;;;6.53;2.72;;;18.50;99.90;;;;;;5084057;28;20507;-62
2021/08/10 06:03:55;;;;;;;8.63;2.75;;;18.30;99.90;;;;;;5079559;28;20036;-61
2021/08/10 06:06:20;;;;;;;5.43;2.63;;;18.30;99.90;;;;;;5079259;28;20037;-62
2021/08/10 06:08:46;;;;;;;5.70;2.38;;;18.20;99.90;;;;;;5085626;28;20036;-60
2021/08/10 06:11:11;;;;;;;5.80;2.53;;;17.90;99.90;;;;;;5085856;28;20063;-61
2021/08/10 06:13:37;;;;;;;4.32;2.55;;;18.00;99.90;;;;;;5083456;28;20024;-61
2021/08/10 06:16:03;;;;;;;6.03;2.67;;;17.90;99.90;;;;;;5085593;28;20546;-61
2021/08/10 06:18:28;;;;;;;6.25;2.53;;;18.30;99.90;;;;;;5076949;28;20024;-61
2021/08/10 06:20:54;;;;;;;11.95;2.67;;;18.80;99.90;;;;;;5088843;28;20021;-61
2021/08/10 06:23:19;;;;;;;10.70;2.63;;;19.20;99.90;;;;;;5080002;28;20067;-57
2021/08/10 06:25:45;;;;;;;7.05;2.58;;;19.10;99.90;;;;;;5086503;28;20036;-58
2021/08/10 06:28:10;;;;;;;4.88;2.70;;;18.90;99.90;;;;;;5089361;28;20398;-60
2021/08/10 06:30:36;;;;;;;7.07;2.55;;;18.60;99.90;;;;;;5083178;28;20032;-61
2021/08/10 06:33:01;;;;;;;4.97;2.30;;;18.50;99.90;;;;;;5087741;28;20049;-61
2021/08/10 06:35:27;;;;;;;3.95;2.22;;;18.70;99.90;;;;;;5088016;28;20596;-62
2021/08/10 06:37:53;;;;;;;3.60;2.05;;;19.20;99.90;;;;;;5083988;28;20556;-62
2021/08/10 06:40:19;;;;;;;5.28;1.70;;;20.50;99.90;;;;;;5084976;28;20119;-62
2021/08/10 06:42:44;;;;;;;3.83;1.90;;;21.40;99.90;;;;;;5085710;28;20047;-61
2021/08/10 06:45:10;;;;;;;5.13;1.77;;;22.40;99.90;;;;;;5093764;28;20125;-62
2021/08/10 06:47:36;;;;;;;2.78;1.38;;;23.20;99.90;;;;;;5088779;28;20494;-63
2021/08/10 06:50:01;;;;;;;6.57;2.05;;;23.80;99.90;;;;;;5086738;28;20120;-62
2021/08/10 06:52:27;;;;;;;4.20;1.60;;;25.00;99.90;;;;;;5086562;28;20032;-62
2021/08/10 06:54:53;;;;;;;3.25;1.60;;;26.20;98.70;;;;;;5089261;28;20399;-59
2021/08/10 06:57:18;;;;;;;4.65;1.70;;;26.70;97.30;;;;;;5079306;28;20072;-62
2021/08/10 06:59:44;;;;;;;4.82;2.08;;;27.30;95.80;;;;;;5085639;28;20062;-63
2021/08/10 07:02:09;;;;;;;5.75;1.75;;;27.90;94.30;;;;;;5069652;28;20054;-59
2021/08/10 07:04:36;;;;;;;4.28;1.85;;;28.10;92.60;;;;;;5088311;28;20427;-62
2021/08/10 07:07:05;;;;;;;3.90;2.00;;;28.00;93.60;;;;;;5082314;28;20121;-63
2021/08/10 07:09:31;;;;;;;4.90;2.05;;;28.20;91.80;;;;;;5085056;28;20024;-59
2021/08/10 07:11:56;;;;;;;2.67;1.27;;;27.10;93.40;;;;;;5085743;28;20107;-61
2021/08/10 07:14:22;;;;;;;4.45;1.90;;;26.70;94.60;;;;;;5089329;28;21838;-61
2021/08/10 07:16:47;;;;;;;3.20;1.60;;;27.20;93.80;;;;;;5087893;28;20020;-62
2021/08/10 07:19:13;;;;;;;3.22;1.67;;;27.40;93.70;;;;;;5090220;28;20028;-62
2021/08/10 07:21:39;;;;;;;4.60;1.85;;;27.80;93.00;;;;;;5089771;28;20031;-62
2021/08/10 07:24:06;;;;;;;7.78;1.98;;;28.00;93.40;;;;;;5091041;28;20043;-61
2021/08/10 07:26:32;;;;;;;3.17;1.75;;;27.80;93.70;;;;;;5085123;28;20032;-62
2021/08/10 07:28:58;;;;;;;4.45;1.95;;;28.40;92.60;;;;;;5079467;28;20399;-63
2021/08/10 07:31:24;;;;;;;4.22;1.65;;;28.40;92.70;;;;;;5088199;28;20063;-62
2021/08/10 07:33:50;;;;;;;4.10;1.70;;;27.80;93.20;;;;;;5084036;28;20128;-63
2021/08/10 07:36:16;;;;;;;3.97;1.60;;;28.80;91.60;;;;;;5090600;28;20639;-63
2021/08/10 07:38:42;;;;;;;4.15;2.40;;;28.40;91.60;;;;;;5085616;28;20036;-60
2021/08/10 07:41:08;;;;;;;5.00;1.80;;;28.40;94.00;;;;;;5090564;28;20510;-60
2021/08/10 07:43:33;;;;;;;5.18;1.90;;;29.40;90.70;;;;;;5085895;28;20036;-61
2021/08/10 07:45:59;;;;;;;4.68;1.90;;;28.40;90.30;;;;;;5084246;28;20027;-61
2021/08/10 07:48:24;;;;;;;6.25;1.70;;;27.00;92.30;;;;;;5085927;28;20035;-63
2021/08/10 07:50:50;;;;;;;8.40;2.13;;;27.40;93.00;;;;;;5091410;28;20095;-61
2021/08/10 07:53:19;;;;;;;5.10;2.22;;;28.00;93.10;;;;;;5084247;28;20028;-62
2021/08/10 07:55:45;;;;;;;4.65;1.65;;;28.50;91.70;;;;;;5084034;28;20028;-61
2021/08/10 07:58:10;;;;;;;4.45;1.83;;;29.40;91.90;;;;;;5082729;28;20028;-62
2021/08/10 08:00:36;;;;;;;6.90;1.70;;;29.10;90.80;;;;;;5088569;28;20043;-62
2021/08/10 08:03:02;;;;;;;5.32;1.80;;;28.70;90.60;;;;;;5081777;28;20530;-63
2021/08/10 08:05:27;;;;;;;4.20;2.08;;;28.90;90.80;;;;;;5090122;28;20113;-57
2021/08/10 08:07:53;;;;;;;5.63;2.13;;;28.60;90.20;;;;;;5084011;28;20111;-61
2021/08/10 08:10:18;;;;;;;6.63;2.08;;;27.70;91.10;;;;;;5087606;28;20562;-62
2021/08/10 08:12:44;;;;;;;6.32;2.00;;;26.60;92.80;;;;;;5087430;28;21318;-63
2021/08/10 08:15:10;;;;;;;4.72;2.20;;;26.10;93.90;;;;;;5080091;28;20510;-62
2021/08/10 08:17:36;;;;;;;4.95;2.22;;;25.20;95.00;;;;;;5079846;28;20027;-61
2021/08/10 08:20:02;;;;;;;3.65;2.42;;;24.30;95.50;;;;;;5084135;28;20395;-61
2021/08/10 08:22:28;;;;;;;5.15;2.35;;;23.50;96.20;;;;;;5085517;28;20032;-61
2021/08/10 08:24:54;;;;;;;8.00;2.60;;;23.20;97.60;;;;;;5084362;28;20036;-62
2021/08/10 08:27:19;;;;;;;6.18;2.90;;;22.60;98.10;;;;;;5084328;28;20032;-61
2021/08/10 08:29:45;;;;;;;8.40;2.28;;;22.50;99.30;;;;;;5080830;28;20086;-60
2021/08/10 08:32:10;;;;;;;10.05;2.50;;;22.20;99.90;;;;;;5085029;28;20035;-59
2021/08/10 08:34:36;;;;;;;5.18;2.00;;;22.20;99.90;;;;;;5090845;28;20036;-62
2021/08/10 08:37:03;;;;;;;5.20;2.38;;;22.60;99.90;;;;;;5083802;28;21724;-61
2021/08/10 08:39:29;;;;;;;3.97;2.08;;;22.70;99.90;;;;;;5082100;28;20486;-59
2021/08/10 08:41:55;;;;;;;5.82;2.58;;;23.10;99.90;;;;;;5087469;28;20114;-60
2021/08/10 08:44:20;;;;;;;6.60;2.00;;;23.00;99.90;;;;;;5091108;28;20028;-61
2021/08/10 08:46:48;;;;;;;4.72;2.30;;;22.80;99.90;;;;;;5078434;28;20025;-62
2021/08/10 08:49:21;;;;;;;7.90;1.92;;;22.50;99.90;;;;;;5085703;28;20024;-61
2021/08/10 08:51:48;;;;;;;4.18;2.08;;;22.80;99.90;;;;;;5086352;28;20029;-62
2021/08/10 08:54:15;;;;;;;5.88;2.63;;;23.40;99.90;;;;;;5086172;28;20032;-62
2021/08/10 08:56:40;;;;;;;4.45;2.35;;;24.10;98.70;;;;;;5081316;28;20024;-64
2021/08/10 08:59:06;;;;;;;14.18;2.50;;;24.60;98.30;;;;;;5088334;28;20028;-62
2021/08/10 09:01:32;;;;;;;4.63;2.42;;;25.90;96.90;;;;;;5066105;28;20028;-63
2021/08/10 09:03:58;;;;;;;4.35;1.80;;;26.80;95.10;;;;;;5079547;28;20488;-62
2021/08/10 09:06:23;;;;;;;7.70;2.60;;;25.80;95.70;;;;;;5082162;28;20162;-62
2021/08/10 09:08:55;;;;;;;8.45;3.08;;;25.10;95.90;;;;;;5087267;28;20513;-62
2021/08/10 09:11:22;;;;;;;5.13;2.28;;;24.60;96.30;;;;;;5080857;28;20115;-62
2021/08/10 09:13:59;;;;;;;5.57;2.50;;;24.00;98.10;;;;;;5087907;28;20028;-63
2021/08/10 09:16:25;;;;;;;4.88;2.55;;;23.80;98.10;;;;;;5079575;28;20024;-61
2021/08/10 09:18:51;;;;;;;5.10;1.85;;;23.70;98.60;;;;;;5077731;28;20020;-59
2021/08/10 09:21:20;;;;;;;5.15;2.42;;;23.60;99.20;;;;;;5089304;28;20563;-61
2021/08/10 09:23:48;;;;;;;4.43;2.10;;;23.30;99.00;;;;;;5084090;28;20461;-61
2021/08/10 09:26:19;;;;;;;5.03;2.53;;;23.00;99.30;;;;;;5078811;28;20028;-60
2021/08/10 09:28:45;;;;;;;5.15;2.30;;;23.10;99.70;;;;;;5087372;28;20039;-62
2021/08/10 09:31:29;;;;;;;8.90;2.08;;;23.40;99.90;;;;;;5080211;28;20051;-61
2021/08/10 09:34:01;;;;;;;3.85;1.95;;;23.80;99.10;;;;;;5086699;28;20028;-62
2021/08/10 09:36:28;;;;;;;6.50;2.33;;;24.40;98.30;;;;;;5085847;28;20043;-63
2021/08/10 09:38:54;;;;;;;4.32;2.10;;;25.20;97.50;;;;;;5079831;28;20097;-62
2021/08/10 09:41:19;;;;;;;3.53;1.92;;;25.60;95.90;;;;;;5087154;28;20028;-61
2021/08/10 09:43:46;;;;;;;3.15;1.85;;;25.50;94.90;;;;;;5083482;28;20067;-62
2021/08/10 09:46:19;;;;;;;3.28;1.77;;;25.90;96.50;;;;;;5080809;28;20395;-61
2021/08/10 09:48:49;;;;;;;6.57;2.40;;;26.20;95.00;;;;;;5087338;28;20135;-62
2021/08/10 09:51:17;;;;;;;3.92;1.95;;;26.20;95.30;;;;;;5087132;28;20036;-62
2021/08/10 09:53:53;;;;;;;6.50;2.15;;;26.30;94.00;;;;;;5082610;28;20024;-60
2021/08/10 09:56:18;;;;;;;6.85;2.55;;;26.30;94.30;;;;;;5086747;28;20024;-62
2021/08/10 09:58:58;;;;;;;6.57;2.10;;;25.10;97.50;;;;;;5084705;28;20410;-56
2021/08/10 10:01:41;;;;;;;8.50;3.53;;;24.00;97.20;;;;;;5077771;28;20849;-61
2021/08/10 10:04:13;;;;;;;11.15;3.10;;;23.20;99.90;;;;;;5084300;28;20482;-60
2021/08/10 10:06:40;;;;;;;7.47;3.22;;;22.40;99.90;;;;;;5077338;28;20039;-61
2021/08/10 10:09:05;;;;;;;8.57;3.20;;;21.80;99.90;;;;;;5083213;28;20028;-61
2021/08/10 10:11:34;;;;;;;8.10;4.18;;;21.40;99.90;;;;;;5074198;28;20534;-61
2021/08/10 10:14:00;;;;;;;9.30;3.60;;;21.00;99.90;;;;;;5080203;28;20020;-61
2021/08/10 10:16:28;;;;;;;9.73;3.50;;;20.60;99.90;;;;;;5086386;28;20618;-62
2021/08/10 10:18:55;;;;;;;5.97;3.42;;;20.30;99.90;;;;;;5086321;28;20024;-61
2021/08/10 10:21:24;;;;;;;6.40;3.40;;;20.20;99.90;;;;;;5080445;28;20131;-60
2021/08/10 10:23:53;;;;;;;8.82;3.88;;;20.10;99.90;;;;;;5082667;28;20024;-57
2021/08/10 10:26:21;;;;;;;9.35;3.70;;;20.10;99.90;;;;;;5086141;28;20689;-60
2021/08/10 10:28:47;;;;;;;7.47;3.60;;;20.40;99.90;;;;;;5083139;28;20103;-60
2021/08/10 10:31:13;;;;;;;6.13;3.45;;;20.80;99.90;;;;;;5087313;28;20111;-62
2021/08/10 10:33:39;;;;;;;6.85;3.17;;;21.00;99.90;;;;;;5084157;28;20048;-61
2021/08/10 10:36:06;;;;;;;6.40;3.35;;;21.10;99.90;;;;;;5087081;28;20036;-59
2021/08/10 10:38:32;;;;;;;7.25;3.70;;;21.30;99.90;;;;;;5085800;28;20057;-62
2021/08/10 10:41:00;;;;;;;5.25;3.35;;;21.80;99.90;;;;;;5088287;28;20020;-62
2021/08/10 10:43:29;;;;;;;7.57;3.40;;;22.00;99.90;;;;;;5083902;28;20413;-60
2021/08/10 10:45:55;;;;;;;7.90;3.75;;;22.30;99.90;;;;;;5089352;28;20024;-61
2021/08/10 10:48:27;;;;;;;5.03;3.30;;;22.30;99.90;;;;;;5081874;28;20028;-62
2021/08/10 10:51:11;;;;;;;6.28;3.38;;;22.40;99.90;;;;;;5080796;28;20020;-61
2021/08/10 10:53:41;;;;;;;8.13;3.30;;;22.70;99.90;;;;;;5075530;28;20020;-60
2021/08/10 10:56:25;;;;;;;8.15;2.97;;;23.00;99.90;;;;;;5086435;28;20032;-61
2021/08/10 10:58:55;;;;;;;8.77;3.42;;;23.30;99.90;;;;;;5083040;28;20046;-61
2021/08/10 11:01:31;;;;;;;6.57;3.60;;;23.00;99.90;;;;;;5086992;28;20031;-61
2021/08/10 11:04:03;;;;;;;6.05;2.55;;;23.00;99.90;;;;;;5085734;28;20130;-61
2021/08/10 11:06:49;;;;;;;5.70;3.15;;;23.20;99.90;;;;;;5088618;28;20039;-62
2021/08/10 11:09:37;;;;;;;5.93;3.08;;;23.10;99.90;;;;;;5087392;28;20444;-62
2021/08/10 11:12:04;;;;;;;8.50;4.10;;;23.20;99.90;;;;;;5080615;28;20039;-60
2021/08/10 11:14:38;;;;;;;6.03;3.33;;;22.90;99.90;;;;;;5082655;28;20033;-61
2021/08/10 11:17:18;;;;;;;6.85;4.22;;;23.10;99.90;;;;;;5083094;28;20024;-60
2021/08/10 11:19:48;;;;;;;7.45;4.18;;;22.90;99.90;;;;;;5086055;28;20085;-60
2021/08/10 11:22:17;;;;;;;4.65;2.92;;;23.10;99.90;;;;;;5083305;28;20056;-61
2021/08/10 11:24:52;;;;;;;5.38;3.60;;;23.30;99.90;;;;;;5085981;28;20021;-62
2021/08/10 11:27:34;;;;;;;3.75;2.50;;;23.20;99.90;;;;;;5089472;28;20027;-62
2021/08/10 11:30:03;;;;;;;6.72;3.38;;;23.40;99.90;;;;;;5090672;28;20479;-61
2021/08/10 11:32:46;;;;;;;5.82;3.38;;;23.70;99.90;;;;;;5090719;28;20115;-61
2021/08/10 11:35:33;;;;;;;6.95;3.20;;;23.50;99.90;;;;;;5092433;28;20074;-61
2021/08/10 11:38:17;;;;;;;5.07;3.00;;;23.50;99.90;;;;;;5077409;28;20021;-60
2021/08/10 11:40:53;;;;;;;7.68;3.85;;;23.60;99.90;;;;;;5069396;28;20514;-62
2021/08/10 11:43:20;;;;;;;7.97;3.05;;;23.80;99.90;;;;;;5077464;28;20024;-60
2021/08/10 11:45:47;;;;;;;5.40;2.70;;;23.80;99.90;;;;;;5089153;28;20070;-59
2021/08/10 11:48:12;;;;;;;4.40;2.60;;;23.90;99.90;;;;;;5092226;28;20414;-61
2021/08/10 11:50:38;;;;;;;5.28;3.55;;;24.20;99.90;;;;;;5092476;28;20028;-61
2021/08/10 11:53:04;;;;;;;8.25;3.13;;;24.00;99.90;;;;;;5079869;28;20070;-61
2021/08/10 11:55:31;;;;;;;4.55;3.03;;;23.80;99.90;;;;;;5090032;28;20052;-62
2021/08/10 11:57:59;;;;;;;6.40;3.22;;;24.00;99.90;;;;;;5091355;28;20074;-61
2021/08/10 12:00:26;;;;;;;2.75;2.33;;;24.50;99.90;;;;;;5086533;28;20024;-61
2021/08/10 12:02:52;;;;;;;4.45;2.40;;;24.90;99.90;;;;;;5081147;28;20031;-61
2021/08/10 12:05:18;;;;;;;5.90;3.33;;;24.80;99.60;;;;;;5083810;28;20020;-61
2021/08/10 12:07:55;;;;;;;5.53;2.95;;;24.70;99.90;;;;;;5086131;28;20028;-61
2021/08/10 12:10:33;;;;;;;5.75;3.20;;;24.30;99.90;;;;;;5090552;28;20469;-61
2021/08/10 12:13:01;;;;;;;6.40;2.90;;;24.10;99.90;;;;;;5086632;28;20020;-62
2021/08/10 12:15:42;;;;;;;4.45;3.30;;;24.10;99.90;;;;;;5073399;28;20497;-62
2021/08/10 12:18:09;;;;;;;6.57;3.60;;;24.00;99.90;;;;;;5091079;28;20020;-61
2021/08/10 12:20:34;;;;;;;5.10;3.90;;;23.90;99.90;;;;;;5037619;28;20433;-60
2021/08/10 12:23:02;;;;;;;7.63;3.53;;;23.40;99.90;;;;;;5015720;28;20752;-62
2021/08/10 12:25:28;;;;;;;5.80;3.60;;;23.00;99.90;;;;;;5047186;28;20033;-61
2021/08/10 12:28:09;;;;;;;6.80;3.13;;;22.70;99.90;;;;;;5044759;28;20143;-61
2021/08/10 12:30:37;;;;;;;11.93;3.67;;;22.60;99.90;;;;;;5046711;28;20128;-59
2021/08/10 12:33:21;;;;;;;8.63;3.40;;;22.70;99.90;;;;;;5030648;28;20780;-61
2021/08/10 12:36:01;;;;;;;6.15;2.97;;;22.60;99.90;;;;;;5048086;28;20035;-60
2021/08/10 12:38:29;;;;;;;5.03;2.88;;;22.60;99.90;;;;;;5048587;28;20457;-61
2021/08/10 12:40:55;;;;;;;8.20;3.35;;;22.60;99.90;;;;;;5048202;28;20104;-62
2021/08/10 12:43:21;;;;;;;4.38;3.10;;;22.60;99.90;;;;;;5047265;28;20021;-60
2021/08/10 12:45:47;;;;;;;6.05;2.90;;;22.80;99.90;;;;;;5043932;28;20453;-58
2021/08/10 12:48:32;;;;;;;9.43;2.92;;;22.90;99.90;;;;;;5047980;28;20048;-60
2021/08/10 12:51:04;;;;;;;7.32;3.65;;;23.00;99.90;;;;;;5044203;28;20028;-59